Time;durP1;ratioP1;P1;durP2;ratioP2;P2;SDS_P1;SDS_P2;PMS_P1;PMS_P2;Temp;Humidity;BMP_temperature;BMP_pressure;BME280_temperature;BME280_humidity;BME280_pressure;Samples;Min_cycle;Max_cycle;Signal;HPM_P1;HPM_P2
2021/09/10 03:34:54;;;;;;;11.40;10.30;;;19.40;99.90;;;;;;4695730;30;21004;-84
2021/09/10 03:37:27;;;;;;;9.93;9.03;;;19.40;99.90;;;;;;4773107;29;20961;-84
2021/09/10 03:40:07;;;;;;;10.27;9.47;;;19.40;99.90;;;;;;4787752;30;20592;-84
2021/09/10 03:43:03;;;;;;;11.20;10.20;;;19.40;99.90;;;;;;4884151;29;20502;-83
2021/09/10 03:45:35;;;;;;;11.80;10.80;;;19.40;99.90;;;;;;4897552;29;20463;-84
2021/09/10 03:48:19;;;;;;;12.03;11.03;;;19.40;99.90;;;;;;4908667;29;20474;-84
2021/09/10 03:50:57;;;;;;;12.13;11.17;;;19.40;99.90;;;;;;4918646;29;20466;-84
2021/09/10 03:53:24;;;;;;;11.73;10.63;;;19.40;99.90;;;;;;4945758;23;21017;-82
2021/09/10 03:55:52;;;;;;;13.57;12.33;;;19.30;99.90;;;;;;4938995;29;20449;-83
2021/09/10 03:58:19;;;;;;;13.73;12.40;;;19.30;99.90;;;;;;4938767;29;20457;-83
2021/09/10 04:00:46;;;;;;;12.77;11.53;;;19.30;99.90;;;;;;4939039;29;20445;-82
2021/09/10 04:03:12;;;;;;;13.07;12.07;;;19.30;99.90;;;;;;4938516;29;20499;-83
2021/09/10 04:05:39;;;;;;;13.40;12.10;;;19.20;99.90;;;;;;4938841;29;20457;-83
2021/09/10 04:08:06;;;;;;;12.13;11.03;;;19.20;99.90;;;;;;4939042;29;20519;-83
2021/09/10 04:10:33;;;;;;;12.33;11.23;;;19.20;99.90;;;;;;4939466;29;20457;-83
2021/09/10 04:13:01;;;;;;;11.43;10.43;;;19.10;99.90;;;;;;4938617;29;20492;-83
2021/09/10 04:15:28;;;;;;;12.43;11.40;;;19.10;99.90;;;;;;4938702;29;20454;-83
2021/09/10 04:17:55;;;;;;;12.97;11.97;;;19.00;99.90;;;;;;4938796;29;20461;-82
2021/09/10 04:20:22;;;;;;;13.00;11.70;;;19.00;99.90;;;;;;4939114;29;20464;-82
2021/09/10 04:22:48;;;;;;;11.33;10.33;;;18.90;99.90;;;;;;4937953;29;20900;-82
2021/09/10 04:25:15;;;;;;;14.37;13.00;;;18.90;99.90;;;;;;4938403;29;20468;-82
2021/09/10 04:27:42;;;;;;;13.00;11.80;;;18.80;99.90;;;;;;4938734;29;20817;-82
2021/09/10 04:30:11;;;;;;;12.33;11.27;;;18.80;99.90;;;;;;4938574;29;20452;-82
2021/09/10 04:32:38;;;;;;;13.57;12.40;;;18.80;99.90;;;;;;4937544;29;20485;-82
2021/09/10 04:35:06;;;;;;;13.27;12.00;;;18.70;99.90;;;;;;4938497;29;20906;-82
2021/09/10 04:37:32;;;;;;;11.53;10.63;;;18.60;99.90;;;;;;4938520;29;20812;-82
2021/09/10 04:40:00;;;;;;;12.50;11.30;;;18.60;99.90;;;;;;4938438;29;20465;-82
2021/09/10 04:42:27;;;;;;;12.40;11.40;;;18.60;99.90;;;;;;4938476;29;20477;-82
2021/09/10 04:44:54;;;;;;;14.60;13.17;;;18.60;99.90;;;;;;4938694;29;20465;-82
2021/09/10 04:47:22;;;;;;;13.30;12.00;;;18.50;99.90;;;;;;4938074;29;20822;-82
2021/09/10 04:49:48;;;;;;;14.27;12.97;;;18.40;99.90;;;;;;4938031;29;20464;-82
2021/09/10 04:52:15;;;;;;;13.37;12.27;;;18.40;99.90;;;;;;4937380;29;20476;-82
2021/09/10 04:54:42;;;;;;;12.50;11.37;;;18.40;99.90;;;;;;4938137;29;20448;-82
2021/09/10 04:57:09;;;;;;;12.30;11.00;;;18.30;99.90;;;;;;4937488;29;20460;-82
2021/09/10 04:59:35;;;;;;;13.57;12.10;;;18.20;99.90;;;;;;4937934;29;20452;-82
2021/09/10 05:02:02;;;;;;;13.97;12.67;;;18.20;99.90;;;;;;4936847;29;20456;-82
2021/09/10 05:04:30;;;;;;;11.70;10.70;;;18.20;99.90;;;;;;4937319;29;20500;-82
2021/09/10 05:06:57;;;;;;;13.13;11.87;;;18.10;99.90;;;;;;4937744;29;20461;-82
2021/09/10 05:09:24;;;;;;;14.10;12.80;;;18.10;99.90;;;;;;4938000;29;20457;-82
2021/09/10 05:11:51;;;;;;;14.20;13.00;;;18.10;99.90;;;;;;4936853;29;20460;-81
2021/09/10 05:14:17;;;;;;;13.60;12.50;;;18.10;99.90;;;;;;4937614;29;20458;-82
2021/09/10 05:16:44;;;;;;;12.80;11.77;;;18.10;99.90;;;;;;4937406;29;20465;-82
2021/09/10 05:19:12;;;;;;;12.67;11.47;;;18.10;99.90;;;;;;4937611;29;20460;-82
2021/09/10 05:21:40;;;;;;;11.80;10.80;;;18.10;99.90;;;;;;4937205;29;20884;-81
2021/09/10 05:24:07;;;;;;;12.63;11.57;;;18.10;99.90;;;;;;4937518;29;20500;-82
2021/09/10 05:26:34;;;;;;;13.73;12.40;;;18.10;99.90;;;;;;4937356;29;20466;-82
2021/09/10 05:29:01;;;;;;;14.07;12.87;;;18.10;99.90;;;;;;4937394;29;20460;-82
2021/09/10 05:31:28;;;;;;;14.67;13.47;;;18.10;99.90;;;;;;4936805;29;20461;-82
2021/09/10 05:33:55;;;;;;;13.40;12.20;;;18.10;99.90;;;;;;4937515;29;20469;-82
2021/09/10 05:36:22;;;;;;;12.43;11.53;;;18.10;99.90;;;;;;4936561;29;20460;-82
2021/09/10 05:38:50;;;;;;;12.60;11.40;;;18.10;99.90;;;;;;4937542;29;20457;-82
2021/09/10 05:41:16;;;;;;;13.13;12.03;;;18.10;99.90;;;;;;4937701;29;20449;-81
2021/09/10 05:43:44;;;;;;;12.80;11.70;;;18.10;99.90;;;;;;4936395;29;20492;-82
2021/09/10 05:46:10;;;;;;;12.07;11.03;;;18.20;99.90;;;;;;4937183;29;20456;-82
2021/09/10 05:48:37;;;;;;;13.83;12.53;;;18.20;99.90;;;;;;4937157;29;20464;-82
2021/09/10 05:51:04;;;;;;;13.27;11.73;;;18.30;99.90;;;;;;4937576;29;20468;-83
2021/09/10 05:53:31;;;;;;;14.00;12.70;;;18.30;99.90;;;;;;4936254;29;20498;-83
2021/09/10 05:55:59;;;;;;;14.07;12.87;;;18.30;99.90;;;;;;4937171;29;20952;-81
2021/09/10 05:58:26;;;;;;;12.90;11.80;;;18.40;99.90;;;;;;4937560;29;20467;-81
2021/09/10 06:00:53;;;;;;;14.77;13.30;;;18.50;99.90;;;;;;4941225;29;20831;-81
2021/09/10 06:03:19;;;;;;;13.73;12.53;;;18.60;99.90;;;;;;4939927;29;20490;-84
2021/09/10 06:05:46;;;;;;;13.43;12.13;;;18.60;99.90;;;;;;4946181;29;20829;-82
2021/09/10 06:08:13;;;;;;;13.00;11.50;;;18.60;99.90;;;;;;4942394;29;20461;-81
2021/09/10 06:10:40;;;;;;;14.83;13.53;;;18.60;99.90;;;;;;4944768;29;20463;-82
2021/09/10 06:13:10;;;;;;;13.10;11.80;;;18.70;99.90;;;;;;4943158;29;20481;-82
2021/09/10 06:15:36;;;;;;;14.70;13.20;;;18.80;99.90;;;;;;4945319;29;20896;-81
2021/09/10 06:18:03;;;;;;;12.20;11.10;;;18.90;99.90;;;;;;4943061;29;20458;-82
2021/09/10 06:20:30;;;;;;;12.70;11.67;;;19.00;99.90;;;;;;4947307;29;20466;-82
2021/09/10 06:22:57;;;;;;;15.00;12.47;;;19.10;99.90;;;;;;4949500;29;20547;-81
2021/09/10 06:25:24;;;;;;;13.87;12.67;;;19.20;99.90;;;;;;4950359;29;20449;-83
2021/09/10 06:27:51;;;;;;;13.47;12.17;;;19.20;99.90;;;;;;4949435;29;20508;-82
2021/09/10 06:30:20;;;;;;;14.03;12.63;;;19.20;99.90;;;;;;4948339;29;20453;-82
2021/09/10 06:32:47;;;;;;;13.93;12.73;;;19.30;99.90;;;;;;4941667;29;20476;-83
2021/09/10 06:35:13;;;;;;;13.53;12.20;;;19.30;99.90;;;;;;4942066;29;20465;-84
2021/09/10 06:37:40;;;;;;;13.63;12.47;;;19.40;99.90;;;;;;4941332;29;20449;-82
2021/09/10 06:40:10;;;;;;;12.20;10.90;;;19.40;99.90;;;;;;4930001;29;20457;-83
2021/09/10 06:42:37;;;;;;;12.27;11.03;;;19.50;99.90;;;;;;4938650;29;20465;-83
2021/09/10 06:45:05;;;;;;;13.80;12.50;;;19.60;99.90;;;;;;4939680;29;20573;-83
2021/09/10 06:47:35;;;;;;;12.57;11.57;;;19.60;99.90;;;;;;4939146;29;20446;-84
2021/09/10 06:50:02;;;;;;;12.40;11.20;;;19.70;99.90;;;;;;4939385;29;20447;-83
2021/09/10 06:52:29;;;;;;;12.13;10.97;;;19.80;99.90;;;;;;4936067;29;20478;-83
2021/09/10 06:54:56;;;;;;;13.07;11.87;;;19.90;99.90;;;;;;4939159;29;20444;-83
2021/09/10 06:57:36;;;;;;;11.07;9.97;;;20.10;99.90;;;;;;4934438;29;20454;-82
2021/09/10 07:00:22;;;;;;;11.90;10.90;;;20.10;99.90;;;;;;4940894;29;20459;-83
2021/09/10 07:06:08;;;;;;;9.93;9.13;;;20.40;99.90;;;;;;4821620;29;20476;-84
2021/09/10 07:08:36;;;;;;;9.63;8.73;;;20.50;99.90;;;;;;4840290;29;20518;-84
2021/09/10 07:11:10;;;;;;;10.70;9.67;;;20.60;99.90;;;;;;4902980;29;20531;-84
2021/09/10 07:13:52;;;;;;;10.27;9.47;;;20.70;99.90;;;;;;4947783;29;20468;-84
2021/09/10 07:33:04;;;;;;;;;;;;;;;;;;;;;
2021/09/10 07:35:34;;;;;;;10.40;9.43;;;21.90;99.40;;;;;;4864038;29;20454;-84
2021/09/10 07:38:07;;;;;;;10.10;9.20;;;22.10;99.80;;;;;;4883437;29;20500;-86
2021/09/10 07:40:33;;;;;;;11.00;10.00;;;22.30;99.20;;;;;;4936618;29;20454;-80
2021/09/10 07:43:00;;;;;;;8.50;7.80;;;22.40;98.90;;;;;;4939735;29;20481;-80
2021/09/10 07:45:27;;;;;;;10.63;9.80;;;22.40;98.50;;;;;;4939160;29;20494;-80
2021/09/10 07:47:55;;;;;;;9.83;9.13;;;22.50;98.50;;;;;;4938699;29;20485;-77
2021/09/10 07:50:22;;;;;;;9.77;8.97;;;22.60;98.60;;;;;;4940229;29;20465;-79
2021/09/10 07:52:50;;;;;;;8.83;8.13;;;22.70;97.50;;;;;;4938943;29;20491;-79
2021/09/10 07:55:17;;;;;;;8.77;8.07;;;22.80;97.60;;;;;;4938758;29;20454;-81
2021/09/10 07:57:43;;;;;;;8.40;7.70;;;22.80;97.10;;;;;;4939135;29;20488;-80
2021/09/10 08:00:11;;;;;;;9.97;9.00;;;23.00;97.20;;;;;;4938754;29;20470;-80
2021/09/10 08:02:38;;;;;;;10.80;9.60;;;23.00;97.20;;;;;;4938888;29;20482;-80
2021/09/10 08:05:06;;;;;;;9.93;9.13;;;23.00;96.40;;;;;;4939234;29;20503;-80
2021/09/10 08:07:33;;;;;;;8.83;8.17;;;23.10;96.70;;;;;;4939199;29;20458;-80
2021/09/10 08:10:01;;;;;;;9.10;8.40;;;23.30;96.70;;;;;;4938873;29;20465;-80
2021/09/10 08:12:28;;;;;;;9.93;9.03;;;23.30;96.20;;;;;;4939079;29;20489;-80
2021/09/10 08:14:55;;;;;;;8.30;7.63;;;23.20;96.40;;;;;;4939731;29;20832;-80
2021/09/10 08:17:22;;;;;;;8.50;7.90;;;23.20;95.90;;;;;;4939219;29;20462;-79
2021/09/10 08:19:49;;;;;;;7.87;7.37;;;23.20;95.70;;;;;;4938688;29;20461;-79
2021/09/10 08:22:17;;;;;;;8.57;7.97;;;23.10;95.80;;;;;;4937987;29;20478;-79
2021/09/10 08:24:47;;;;;;;8.67;8.00;;;23.20;96.10;;;;;;4939013;29;20922;-80
2021/09/10 08:27:15;;;;;;;8.17;7.57;;;23.20;96.10;;;;;;4939139;29;20454;-79
2021/09/10 08:29:41;;;;;;;8.60;7.90;;;23.10;96.30;;;;;;4939279;29;20469;-80
2021/09/10 08:32:08;;;;;;;8.83;8.03;;;23.10;96.40;;;;;;4938267;29;20961;-80
2021/09/10 08:34:35;;;;;;;9.37;8.57;;;23.10;96.20;;;;;;4939081;29;20920;-79
2021/09/10 08:37:02;;;;;;;8.47;7.83;;;23.10;96.30;;;;;;4938856;29;20471;-80
2021/09/10 08:39:28;;;;;;;9.30;8.40;;;23.00;96.30;;;;;;4939957;29;20503;-78
2021/09/10 08:41:55;;;;;;;8.73;8.00;;;23.00;96.20;;;;;;4941082;29;20456;-77
2021/09/10 08:44:25;;;;;;;8.83;8.03;;;22.80;96.30;;;;;;4940122;29;20489;-80
2021/09/10 08:46:52;;;;;;;8.73;8.03;;;22.70;96.40;;;;;;4938324;29;20480;-80
2021/09/10 08:49:19;;;;;;;9.20;8.23;;;22.60;96.50;;;;;;4938926;29;20462;-79
2021/09/10 08:51:46;;;;;;;7.97;7.47;;;22.50;96.70;;;;;;4937472;29;20456;-79
2021/09/10 08:54:13;;;;;;;8.70;8.00;;;22.60;96.90;;;;;;4938373;29;20492;-80
2021/09/10 08:56:39;;;;;;;8.47;7.77;;;22.70;97.00;;;;;;4938270;29;20460;-79
2021/09/10 08:59:08;;;;;;;8.70;8.00;;;22.60;96.90;;;;;;4938177;29;20468;-80
2021/09/10 09:01:46;;;;;;;8.60;7.93;;;22.70;96.80;;;;;;4937102;29;21004;-80
2021/09/10 09:04:13;;;;;;;9.33;8.60;;;22.70;96.70;;;;;;4938414;29;20492;-80
2021/09/10 09:06:39;;;;;;;8.70;8.20;;;22.60;97.10;;;;;;4938455;29;20904;-80
2021/09/10 09:09:06;;;;;;;9.30;8.50;;;22.80;97.50;;;;;;4938399;29;20454;-80
2021/09/10 09:11:33;;;;;;;8.80;8.10;;;23.10;97.20;;;;;;4937579;29;20456;-80
2021/09/10 09:14:03;;;;;;;7.80;7.30;;;23.30;96.60;;;;;;4938440;29;20474;-80
2021/09/10 09:16:31;;;;;;;9.33;8.73;;;23.50;96.20;;;;;;4938977;29;20470;-80
2021/09/10 09:19:01;;;;;;;8.07;7.37;;;23.60;96.40;;;;;;4938598;29;20454;-80
2021/09/10 09:21:29;;;;;;;8.17;7.47;;;23.80;96.10;;;;;;4937553;29;20465;-80
2021/09/10 09:23:58;;;;;;;8.43;7.70;;;23.90;95.10;;;;;;4938536;29;20994;-79
2021/09/10 09:26:27;;;;;;;7.13;6.67;;;24.00;95.00;;;;;;4939108;29;20465;-80
2021/09/10 09:29:08;;;;;;;8.80;8.10;;;24.00;94.70;;;;;;4938706;29;20480;-79
2021/09/10 09:31:35;;;;;;;9.40;7.33;;;23.90;94.90;;;;;;4938403;29;20541;-81
2021/09/10 09:34:04;;;;;;;7.70;7.10;;;24.00;95.10;;;;;;4940036;29;20473;-79
2021/09/10 09:36:31;;;;;;;7.90;7.30;;;23.90;94.30;;;;;;4939160;29;20468;-80
2021/09/10 09:38:58;;;;;;;9.00;8.30;;;24.00;94.90;;;;;;4938606;29;20479;-80
2021/09/10 09:41:26;;;;;;;8.00;7.40;;;24.20;94.60;;;;;;4939088;29;20487;-80
2021/09/10 09:44:02;;;;;;;8.10;7.50;;;24.40;94.20;;;;;;4938426;29;20827;-80
2021/09/10 09:46:31;;;;;;;9.60;8.80;;;24.50;94.20;;;;;;4938872;29;20474;-79
2021/09/10 09:49:11;;;;;;;7.77;7.27;;;24.70;94.20;;;;;;4938836;29;20462;-80
2021/09/10 09:51:39;;;;;;;8.60;7.90;;;24.80;93.80;;;;;;4937750;29;20462;-80
2021/09/10 09:54:06;;;;;;;8.50;7.70;;;25.00;93.90;;;;;;4980738;23;20511;-83
2021/09/10 09:56:33;;;;;;;8.33;7.77;;;25.10;93.50;;;;;;4939711;29;20457;-83
2021/09/10 09:59:00;;;;;;;8.40;7.80;;;25.10;93.10;;;;;;4938279;29;20831;-83
2021/09/10 10:01:26;;;;;;;9.17;8.37;;;25.30;93.10;;;;;;4938619;29;20463;-83
2021/09/10 10:03:53;;;;;;;7.97;7.33;;;25.40;92.80;;;;;;4938449;29;20502;-84
2021/09/10 10:06:25;;;;;;;9.13;8.47;;;25.40;93.10;;;;;;4938227;29;20506;-83
2021/09/10 10:08:58;;;;;;;8.43;7.77;;;25.50;92.50;;;;;;4940215;29;20878;-84
2021/09/10 10:11:29;;;;;;;8.80;8.13;;;25.40;92.20;;;;;;4938915;29;20464;-84
2021/09/10 10:13:59;;;;;;;8.47;7.87;;;25.40;92.20;;;;;;4939605;29;20473;-83
2021/09/10 10:16:36;;;;;;;8.17;7.43;;;25.40;92.50;;;;;;4939162;29;20506;-83
2021/09/10 10:19:04;;;;;;;8.07;7.57;;;25.30;92.30;;;;;;4938806;29;20463;-83
2021/09/10 10:21:57;;;;;;;8.90;8.30;;;25.20;92.60;;;;;;4938379;29;20466;-83
2021/09/10 10:24:45;;;;;;;9.63;8.90;;;25.30;93.30;;;;;;4942614;29;20513;-84
2021/09/10 10:27:40;;;;;;;9.40;8.70;;;25.30;92.20;;;;;;4942566;29;20458;-83
2021/09/10 10:30:08;;;;;;;8.93;8.33;;;25.40;92.20;;;;;;4942356;29;20463;-84
2021/09/10 10:32:38;;;;;;;9.67;8.90;;;25.60;92.10;;;;;;4941490;29;20488;-83
2021/09/10 10:35:20;;;;;;;8.90;7.60;;;25.60;91.90;;;;;;4942840;29;20464;-84
2021/09/10 10:37:50;;;;;;;7.97;7.27;;;25.70;91.80;;;;;;4941787;29;20969;-84
2021/09/10 10:40:32;;;;;;;8.53;7.83;;;26.00;91.50;;;;;;4942495;29;20457;-84
2021/09/10 10:43:03;;;;;;;8.27;7.57;;;26.10;90.80;;;;;;4941102;29;20818;-84
2021/09/10 10:46:08;;;;;;;9.80;9.00;;;26.00;90.30;;;;;;4941804;29;20580;-83
2021/09/10 10:48:51;;;;;;;7.03;6.63;;;26.10;89.30;;;;;;4941893;29;20883;-83
2021/09/10 10:51:52;;;;;;;8.03;7.43;;;26.20;90.20;;;;;;4942548;29;20447;-83
2021/09/10 10:54:28;;;;;;;7.70;6.90;;;26.40;90.00;;;;;;4942065;29;20492;-83
2021/09/10 10:56:55;;;;;;;7.63;7.03;;;26.70;88.80;;;;;;4942491;29;20450;-84
2021/09/10 10:59:36;;;;;;;9.37;8.67;;;26.80;88.10;;;;;;4942304;29;20450;-84
2021/09/10 11:02:35;;;;;;;8.50;7.90;;;27.10;88.00;;;;;;4941787;29;20465;-84
2021/09/10 11:05:24;;;;;;;7.33;6.83;;;27.50;90.00;;;;;;4942492;29;20582;-84
2021/09/10 11:07:51;;;;;;;7.30;6.80;;;27.60;82.20;;;;;;4942579;29;20463;-84
2021/09/10 11:10:20;;;;;;;8.27;7.57;;;27.40;82.20;;;;;;4942664;29;20459;-83
2021/09/10 11:12:49;;;;;;;8.70;8.00;;;27.20;82.90;;;;;;4942193;29;20573;-84
2021/09/10 11:15:22;;;;;;;8.13;7.30;;;26.90;83.90;;;;;;4942101;29;20462;-83
2021/09/10 11:17:53;;;;;;;7.60;7.10;;;27.00;84.70;;;;;;4941671;29;20458;-83
2021/09/10 11:20:26;;;;;;;8.53;7.77;;;27.30;84.60;;;;;;4942183;29;20457;-83
2021/09/10 11:22:53;;;;;;;7.93;7.40;;;27.30;83.00;;;;;;4941852;29;20492;-83
2021/09/10 11:25:21;;;;;;;8.80;8.10;;;27.40;82.30;;;;;;4941355;29;20964;-84
2021/09/10 11:27:48;;;;;;;8.23;7.63;;;27.80;82.70;;;;;;4941411;29;20456;-83
2021/09/10 11:30:15;;;;;;;7.47;6.93;;;28.10;82.30;;;;;;4942666;29;20489;-83
2021/09/10 11:32:43;;;;;;;8.10;7.33;;;28.30;81.00;;;;;;4940711;29;20830;-83
2021/09/10 11:35:21;;;;;;;8.43;7.80;;;28.70;81.10;;;;;;4940284;29;20457;-84
2021/09/10 11:37:53;;;;;;;7.73;7.13;;;29.30;83.00;;;;;;4941793;29;20453;-84
2021/09/10 11:40:30;;;;;;;8.40;7.70;;;30.00;79.20;;;;;;4942237;29;20460;-84
2021/09/10 11:43:02;;;;;;;9.27;7.50;;;30.50;76.50;;;;;;4942538;29;20481;-84
2021/09/10 11:45:31;;;;;;;8.20;7.60;;;31.10;73.60;;;;;;4943624;29;20565;-84
2021/09/10 11:47:58;;;;;;;9.27;8.20;;;31.40;71.70;;;;;;4942102;29;20461;-84
2021/09/10 11:50:25;;;;;;;7.73;7.17;;;31.80;71.50;;;;;;4942279;29;20835;-84
2021/09/10 11:52:51;;;;;;;8.40;7.80;;;32.00;69.80;;;;;;4942250;29;20490;-84
2021/09/10 11:55:19;;;;;;;7.57;7.17;;;32.10;67.80;;;;;;4941245;29;20458;-84
2021/09/10 11:57:47;;;;;;;8.00;7.37;;;32.10;67.70;;;;;;4942637;29;20462;-84
2021/09/10 12:00:24;;;;;;;8.00;7.50;;;32.10;67.60;;;;;;4942452;29;20463;-84
2021/09/10 12:02:55;;;;;;;7.50;7.00;;;32.20;66.00;;;;;;4942195;29;20482;-84
2021/09/10 12:05:23;;;;;;;10.13;9.03;;;31.80;66.30;;;;;;4942484;29;20564;-84
2021/09/10 12:07:51;;;;;;;8.63;7.93;;;31.60;67.70;;;;;;4943417;29;20459;-85
2021/09/10 12:10:28;;;;;;;9.23;8.33;;;31.40;67.60;;;;;;4943490;29;20457;-85
2021/09/10 12:13:10;;;;;;;8.10;7.50;;;31.50;67.70;;;;;;4942470;29;20478;-84
2021/09/10 12:15:37;;;;;;;8.27;7.57;;;31.30;68.10;;;;;;4942260;29;20984;-84
2021/09/10 12:18:11;;;;;;;9.00;8.20;;;30.90;68.90;;;;;;4941546;29;20453;-84
2021/09/10 12:20:39;;;;;;;8.33;7.70;;;30.80;69.60;;;;;;4941467;29;20453;-84
2021/09/10 12:23:06;;;;;;;7.97;7.37;;;30.70;68.70;;;;;;4940698;29;20481;-84
2021/09/10 12:25:44;;;;;;;7.37;6.80;;;31.00;69.40;;;;;;4941815;29;20491;-84
2021/09/10 12:28:32;;;;;;;9.50;8.80;;;31.30;68.90;;;;;;4942940;29;20485;-84
2021/09/10 12:31:06;;;;;;;8.50;7.90;;;31.60;69.40;;;;;;4942513;29;20459;-85
2021/09/10 12:33:34;;;;;;;9.20;8.50;;;31.80;67.50;;;;;;4940576;29;20515;-84
2021/09/10 12:36:03;;;;;;;8.20;7.57;;;32.00;67.80;;;;;;4942164;29;20465;-84
2021/09/10 12:38:33;;;;;;;9.40;8.80;;;31.90;66.90;;;;;;4941270;29;20458;-84
2021/09/10 12:41:01;;;;;;;8.43;7.87;;;31.70;67.60;;;;;;4941307;29;20934;-84
2021/09/10 12:43:28;;;;;;;8.70;8.07;;;31.40;67.90;;;;;;4941183;29;20482;-84
2021/09/10 12:45:58;;;;;;;9.17;8.37;;;31.10;68.00;;;;;;4940875;29;20580;-84
2021/09/10 12:48:25;;;;;;;9.00;8.40;;;30.90;69.00;;;;;;4940625;29;20846;-84
2021/09/10 12:50:53;;;;;;;7.93;7.40;;;30.50;70.90;;;;;;4942301;29;20527;-84
2021/09/10 12:53:19;;;;;;;9.00;8.37;;;30.10;69.80;;;;;;4940579;29;20482;-84
2021/09/10 12:55:47;;;;;;;8.00;7.50;;;29.70;71.10;;;;;;4941196;29;20457;-84
2021/09/10 12:58:15;;;;;;;9.73;8.97;;;29.30;72.60;;;;;;4939788;29;20949;-84
2021/09/10 13:00:42;;;;;;;8.27;7.40;;;28.80;74.30;;;;;;4939413;29;20484;-84
2021/09/10 13:03:11;;;;;;;8.20;7.60;;;28.30;75.20;;;;;;4938333;29;20485;-84
2021/09/10 13:05:38;;;;;;;8.57;7.87;;;28.00;76.40;;;;;;4939324;29;20492;-84
2021/09/10 13:08:05;;;;;;;9.07;8.37;;;27.90;78.50;;;;;;4938539;29;20468;-83
2021/09/10 13:10:32;;;;;;;9.47;8.87;;;27.90;77.60;;;;;;4939997;29;20464;-84
2021/09/10 13:12:59;;;;;;;8.70;7.93;;;27.90;78.50;;;;;;4939876;29;20483;-85
2021/09/10 13:15:26;;;;;;;8.63;8.03;;;27.90;78.00;;;;;;4940214;29;20953;-84
2021/09/10 13:17:53;;;;;;;7.50;7.00;;;27.70;78.10;;;;;;4940898;29;20467;-84
2021/09/10 13:20:21;;;;;;;8.67;7.87;;;27.50;78.90;;;;;;4940043;29;20453;-84
2021/09/10 13:22:47;;;;;;;9.33;8.53;;;27.50;79.50;;;;;;4939786;29;20487;-84
2021/09/10 13:25:14;;;;;;;8.40;7.77;;;27.30;79.80;;;;;;4940330;29;20465;-84
2021/09/10 13:27:43;;;;;;;8.33;7.63;;;27.30;81.10;;;;;;4942215;29;20461;-83
2021/09/10 13:30:12;;;;;;;8.27;7.67;;;27.30;80.70;;;;;;4941699;29;20456;-84
2021/09/10 13:32:45;;;;;;;7.63;7.03;;;27.20;80.80;;;;;;4940823;29;20510;-83
2021/09/10 13:35:16;;;;;;;6.90;6.40;;;26.80;81.60;;;;;;4940329;29;20814;-83
2021/09/10 13:37:49;;;;;;;6.50;6.00;;;26.70;81.80;;;;;;4943668;29;20978;-84
2021/09/10 13:40:16;;;;;;;5.73;5.33;;;26.50;83.70;;;;;;4944680;29;20530;-84
2021/09/10 13:42:43;;;;;;;6.53;6.03;;;26.40;83.50;;;;;;4938876;29;20856;-84
2021/09/10 13:45:10;;;;;;;6.00;5.60;;;26.00;83.80;;;;;;4940036;29;20458;-83
2021/09/10 13:47:37;;;;;;;6.67;6.13;;;25.70;85.00;;;;;;4940281;29;20464;-83
2021/09/10 13:50:05;;;;;;;7.00;6.50;;;25.70;85.80;;;;;;4939272;29;20583;-84
2021/09/10 13:52:31;;;;;;;6.47;6.07;;;25.70;86.00;;;;;;4938788;29;20558;-84
2021/09/10 13:54:59;;;;;;;6.47;5.97;;;25.60;86.30;;;;;;4939823;29;20475;-84
2021/09/10 13:57:26;;;;;;;6.57;6.00;;;25.70;87.30;;;;;;4938505;29;20461;-83
2021/09/10 13:59:53;;;;;;;7.10;6.50;;;25.90;87.80;;;;;;4940938;29;20524;-84
2021/09/10 14:02:20;;;;;;;7.07;6.57;;;25.90;88.00;;;;;;4938644;29;20979;-83
2021/09/10 14:04:47;;;;;;;8.10;7.40;;;25.80;87.60;;;;;;4940077;29;20447;-84
2021/09/10 14:07:13;;;;;;;5.77;5.23;;;26.00;87.20;;;;;;4940708;29;20503;-84
2021/09/10 14:09:40;;;;;;;6.87;6.37;;;26.10;87.50;;;;;;4940131;29;20956;-84
2021/09/10 14:12:08;;;;;;;8.33;7.63;;;26.10;86.90;;;;;;4940077;29;20464;-84
2021/09/10 14:14:35;;;;;;;6.33;5.90;;;26.30;86.50;;;;;;4940611;29;20482;-86
2021/09/10 14:17:02;;;;;;;7.50;6.90;;;26.50;85.80;;;;;;4940421;29;20981;-83
2021/09/10 14:19:29;;;;;;;6.50;6.10;;;26.50;84.40;;;;;;4940279;29;20818;-83
2021/09/10 14:22:02;;;;;;;7.50;6.90;;;26.50;84.30;;;;;;4939878;29;20453;-83
2021/09/10 14:24:28;;;;;;;6.87;6.37;;;26.40;85.30;;;;;;4940309;29;20501;-83
2021/09/10 14:26:55;;;;;;;6.43;5.93;;;26.30;85.10;;;;;;4939955;29;20492;-86
2021/09/10 14:29:23;;;;;;;7.57;6.97;;;26.10;86.10;;;;;;4939980;29;20468;-84
2021/09/10 14:31:50;;;;;;;6.33;5.93;;;25.90;85.90;;;;;;4939488;29;20462;-84
2021/09/10 14:34:17;;;;;;;7.30;6.77;;;25.80;87.80;;;;;;4939636;29;20482;-84
2021/09/10 14:36:44;;;;;;;5.90;5.40;;;25.80;87.20;;;;;;4940047;29;20509;-84
2021/09/10 14:39:12;;;;;;;6.57;5.97;;;25.90;87.40;;;;;;4940229;29;20978;-84
2021/09/10 14:41:38;;;;;;;7.37;6.70;;;26.00;86.50;;;;;;4939119;29;20521;-84
2021/09/10 14:44:08;;;;;;;6.70;6.10;;;26.10;86.90;;;;;;4939126;29;20480;-84
2021/09/10 14:46:37;;;;;;;8.50;6.30;;;26.00;86.80;;;;;;4939678;29;20500;-84
2021/09/10 14:49:03;;;;;;;7.30;6.70;;;25.90;88.50;;;;;;4939617;29;20451;-84
2021/09/10 14:51:30;;;;;;;7.17;6.67;;;25.90;87.20;;;;;;4938598;29;20457;-84
2021/09/10 14:53:57;;;;;;;7.13;6.63;;;26.00;87.40;;;;;;4939304;29;20492;-84
2021/09/10 14:56:24;;;;;;;7.70;7.07;;;26.00;88.20;;;;;;4939245;29;20450;-84
2021/09/10 14:59:00;;;;;;;7.83;7.33;;;25.70;89.00;;;;;;4940029;29;20465;-84
2021/09/10 15:01:29;;;;;;;8.17;7.10;;;25.40;90.20;;;;;;4939055;29;20461;-84
2021/09/10 15:03:57;;;;;;;8.23;7.60;;;25.20;91.10;;;;;;4939017;29;20575;-83
2021/09/10 15:06:24;;;;;;;7.73;7.03;;;25.40;90.90;;;;;;4939358;29;20492;-83
2021/09/10 15:08:50;;;;;;;8.23;7.50;;;25.30;91.00;;;;;;4942009;29;20451;-84
2021/09/10 15:11:17;;;;;;;7.47;6.77;;;25.10;91.60;;;;;;4943337;29;20838;-84
2021/09/10 15:13:44;;;;;;;9.07;8.30;;;25.30;91.90;;;;;;4942315;29;20478;-84
2021/09/10 15:16:12;;;;;;;7.93;7.37;;;25.40;91.90;;;;;;4942900;29;20513;-83
2021/09/10 15:18:40;;;;;;;7.23;6.53;;;25.30;91.70;;;;;;4943042;29;20463;-84
2021/09/10 15:21:08;;;;;;;7.90;7.20;;;25.40;91.30;;;;;;4942159;29;20517;-84
2021/09/10 15:23:35;;;;;;;8.13;7.60;;;25.50;91.10;;;;;;4942507;29;20472;-84
2021/09/10 15:26:02;;;;;;;7.00;6.53;;;25.60;90.50;;;;;;4942863;29;20499;-84
2021/09/10 15:28:29;;;;;;;7.10;6.47;;;25.60;91.10;;;;;;4942629;29;20456;-84
2021/09/10 15:30:55;;;;;;;7.77;7.27;;;25.60;90.70;;;;;;4942767;29;20834;-84
2021/09/10 15:33:22;;;;;;;6.97;6.37;;;25.70;90.50;;;;;;4942345;29;20480;-84
2021/09/10 15:35:49;;;;;;;7.10;6.53;;;25.70;90.30;;;;;;4942920;29;20464;-84
2021/09/10 15:38:17;;;;;;;8.50;7.83;;;25.80;89.90;;;;;;4942679;29;20799;-84
2021/09/10 15:40:44;;;;;;;6.90;6.43;;;25.80;89.80;;;;;;4943289;29;20956;-84
2021/09/10 15:43:10;;;;;;;6.80;6.30;;;25.70;89.20;;;;;;4942544;29;20841;-84
2021/09/10 15:45:38;;;;;;;6.70;6.20;;;25.60;89.60;;;;;;4942322;29;20776;-84
2021/09/10 15:48:05;;;;;;;5.27;4.90;;;25.40;90.10;;;;;;4942441;29;20526;-84
2021/09/10 15:50:32;;;;;;;6.57;6.10;;;25.30;90.00;;;;;;4942013;29;20457;-83
2021/09/10 15:52:59;;;;;;;6.63;6.23;;;25.30;90.00;;;;;;4941688;29;20498;-83
2021/09/10 15:55:28;;;;;;;6.70;6.20;;;25.30;89.90;;;;;;4941823;29;20962;-83
2021/09/10 15:57:55;;;;;;;7.43;6.83;;;25.10;89.00;;;;;;4941921;29;20981;-84
2021/09/10 16:00:22;;;;;;;6.50;5.90;;;24.80;89.40;;;;;;4942225;29;20491;-84
2021/09/10 16:02:49;;;;;;;6.60;6.00;;;24.50;90.10;;;;;;4940855;29;20542;-84
2021/09/10 16:05:21;;;;;;;6.70;6.10;;;24.30;90.20;;;;;;4941879;29;20450;-83
2021/09/10 16:07:48;;;;;;;7.10;6.60;;;23.90;90.50;;;;;;4941317;29;20589;-84
2021/09/10 16:10:15;;;;;;;6.90;6.30;;;23.90;91.10;;;;;;4941414;29;20458;-84
2021/09/10 16:12:43;;;;;;;6.93;6.40;;;23.90;91.10;;;;;;4940518;29;20477;-83
2021/09/10 16:15:10;;;;;;;6.37;5.87;;;23.90;91.20;;;;;;4941661;29;20461;-84
2021/09/10 16:17:36;;;;;;;6.50;6.00;;;23.70;91.40;;;;;;4940925;29;20469;-83
2021/09/10 16:20:08;;;;;;;6.30;5.90;;;23.70;91.60;;;;;;4940691;29;20458;-83
2021/09/10 16:22:36;;;;;;;7.00;6.60;;;23.70;91.60;;;;;;4941241;29;20489;-84
2021/09/10 16:25:03;;;;;;;7.17;6.63;;;23.70;91.80;;;;;;4941339;29;20456;-83
2021/09/10 16:27:29;;;;;;;7.50;6.87;;;23.70;91.90;;;;;;4941161;29;20485;-84
2021/09/10 16:29:57;;;;;;;7.27;6.70;;;23.70;92.10;;;;;;4940936;29;20461;-84
2021/09/10 16:32:24;;;;;;;7.43;6.93;;;23.60;92.30;;;;;;4939905;29;20460;-84
2021/09/10 16:34:58;;;;;;;7.37;6.67;;;23.60;92.40;;;;;;4940933;29;20814;-83
2021/09/10 16:37:25;;;;;;;7.53;6.93;;;23.60;92.50;;;;;;4941013;29;20450;-83
2021/09/10 16:39:51;;;;;;;9.30;8.57;;;23.60;92.80;;;;;;4940793;29;20466;-84
2021/09/10 16:42:18;;;;;;;8.13;7.63;;;23.50;92.80;;;;;;4939910;29;20844;-84
2021/09/10 16:44:45;;;;;;;8.50;7.80;;;23.50;92.70;;;;;;4940826;29;20458;-84
2021/09/10 16:47:14;;;;;;;7.30;6.80;;;23.40;92.90;;;;;;4940292;29;20489;-84